Terminal Aerodrome Forecast
Issued by NWS Cleveland, OH

Home | Current Version | Previous Version | Graphics & Text | Print | Product List | Glossary On
Versions: 1 2 3 4 5 6 7 8 9 10 11 12 13 14 15 16 17 18 19 20
000
FTUS41 KCLE 201100
TAFERI
TAF
KERI 201130Z 2012/2112 19010KT P6SM VCSH OVC100
     FM201500 20012G18KT P6SM VCSH BKN080 OVC120
     FM202200 20012G18KT 6SM -SHRA BKN035 OVC060
     FM210400 22008KT 4SM -SHRA BR BKN012 OVC030
     FM210800 26008KT 3SM -SHRA BR BKN006 OVC012=

USA.gov is the U.S. government's official web portal to all federal, state and local government web resources and services.